sensor_id;sensor_type;location;lat;lon;timestamp;pressure;altitude;pressure_sealevel;temperature;humidity
61506;BME280;47366;51.916;4.574;2022-10-24T00:02:03;100305.03;;;15.31;88.79
61506;BME280;47366;51.916;4.574;2022-10-24T00:04:29;100312.06;;;15.33;88.81
61506;BME280;47366;51.916;4.574;2022-10-24T00:06:54;100304.00;;;15.32;88.50
61506;BME280;47366;51.916;4.574;2022-10-24T00:09:19;100314.50;;;15.36;88.63
61506;BME280;47366;51.916;4.574;2022-10-24T00:11:44;100314.38;;;15.38;88.59
61506;BME280;47366;51.916;4.574;2022-10-24T00:14:10;100314.94;;;15.41;88.72
61506;BME280;47366;51.916;4.574;2022-10-24T00:16:35;100312.22;;;15.41;88.79
61506;BME280;47366;51.916;4.574;2022-10-24T00:19:00;100293.97;;;15.42;88.64
61506;BME280;47366;51.916;4.574;2022-10-24T00:21:26;100312.53;;;15.48;88.52
61506;BME280;47366;51.916;4.574;2022-10-24T00:23:51;100296.16;;;15.48;88.32
61506;BME280;47366;51.916;4.574;2022-10-24T00:26:17;100301.47;;;15.49;88.06
61506;BME280;47366;51.916;4.574;2022-10-24T00:28:43;100301.06;;;15.54;87.67
61506;BME280;47366;51.916;4.574;2022-10-24T00:31:12;100302.78;;;15.55;87.38
61506;BME280;47366;51.916;4.574;2022-10-24T00:33:38;100307.94;;;15.58;87.13
61506;BME280;47366;51.916;4.574;2022-10-24T00:36:03;100297.75;;;15.60;86.82
61506;BME280;47366;51.916;4.574;2022-10-24T00:38:29;100301.34;;;15.61;86.62
61506;BME280;47366;51.916;4.574;2022-10-24T00:40:54;100299.34;;;15.63;86.46
61506;BME280;47366;51.916;4.574;2022-10-24T00:43:22;100301.09;;;15.64;86.65
61506;BME280;47366;51.916;4.574;2022-10-24T00:45:56;100298.19;;;15.65;85.41
61506;BME280;47366;51.916;4.574;2022-10-24T00:48:24;100304.13;;;15.70;84.95
61506;BME280;47366;51.916;4.574;2022-10-24T00:50:58;100299.56;;;15.71;85.71
61506;BME280;47366;51.916;4.574;2022-10-24T00:53:25;100293.19;;;15.70;85.11
61506;BME280;47366;51.916;4.574;2022-10-24T00:55:54;100293.06;;;15.72;85.14
61506;BME280;47366;51.916;4.574;2022-10-24T00:58:21;100282.16;;;15.72;84.41
61506;BME280;47366;51.916;4.574;2022-10-24T01:00:47;100293.78;;;15.74;84.42
61506;BME280;47366;51.916;4.574;2022-10-24T01:03:12;100297.38;;;15.75;84.52
61506;BME280;47366;51.916;4.574;2022-10-24T01:08:40;100290.63;;;15.79;83.31
61506;BME280;47366;51.916;4.574;2022-10-24T01:11:43;100289.78;;;15.78;83.52
61506;BME280;47366;51.916;4.574;2022-10-24T01:16:48;100284.16;;;15.80;82.53
61506;BME280;47366;51.916;4.574;2022-10-24T01:21:44;100274.97;;;15.81;82.65
61506;BME280;47366;51.916;4.574;2022-10-24T01:25:14;100270.94;;;15.85;82.13
61506;BME280;47366;51.916;4.574;2022-10-24T01:30:04;100268.22;;;15.85;81.71
61506;BME280;47366;51.916;4.574;2022-10-24T01:32:38;100279.84;;;15.87;80.92
61506;BME280;47366;51.916;4.574;2022-10-24T01:35:16;100261.63;;;15.87;81.65
61506;BME280;47366;51.916;4.574;2022-10-24T01:37:48;100258.00;;;15.87;80.11
61506;BME280;47366;51.916;4.574;2022-10-24T01:40:38;100250.84;;;15.86;80.51
61506;BME280;47366;51.916;4.574;2022-10-24T01:43:09;100249.25;;;15.83;80.02
61506;BME280;47366;51.916;4.574;2022-10-24T01:45:38;100253.69;;;15.84;79.34
61506;BME280;47366;51.916;4.574;2022-10-24T01:48:09;100254.53;;;15.85;80.00
61506;BME280;47366;51.916;4.574;2022-10-24T01:50:37;100252.84;;;15.84;80.18
61506;BME280;47366;51.916;4.574;2022-10-24T01:53:04;100246.81;;;15.80;79.96
61506;BME280;47366;51.916;4.574;2022-10-24T01:55:30;100252.28;;;15.80;78.64
61506;BME280;47366;51.916;4.574;2022-10-24T01:57:56;100260.31;;;15.82;79.32
61506;BME280;47366;51.916;4.574;2022-10-24T02:00:23;100258.72;;;15.79;79.47
61506;BME280;47366;51.916;4.574;2022-10-24T02:02:53;100269.53;;;15.81;77.80
61506;BME280;47366;51.916;4.574;2022-10-24T02:05:26;100261.31;;;15.81;77.77
61506;BME280;47366;51.916;4.574;2022-10-24T02:07:58;100239.31;;;15.82;77.50
61506;BME280;47366;51.916;4.574;2022-10-24T02:10:29;100253.13;;;15.90;76.01
61506;BME280;47366;51.916;4.574;2022-10-24T02:13:02;100235.16;;;15.88;76.94
61506;BME280;47366;51.916;4.574;2022-10-24T02:15:35;100254.72;;;15.93;76.95
61506;BME280;47366;51.916;4.574;2022-10-24T02:18:02;100246.81;;;15.90;77.09
61506;BME280;47366;51.916;4.574;2022-10-24T02:20:34;100247.38;;;15.93;75.80
61506;BME280;47366;51.916;4.574;2022-10-24T02:23:37;100257.31;;;15.95;76.10
61506;BME280;47366;51.916;4.574;2022-10-24T02:26:11;100241.34;;;15.90;76.25
61506;BME280;47366;51.916;4.574;2022-10-24T02:28:41;100232.69;;;15.85;75.61
61506;BME280;47366;51.916;4.574;2022-10-24T02:31:17;100247.97;;;15.87;75.79
61506;BME280;47366;51.916;4.574;2022-10-24T02:33:47;100255.28;;;15.87;75.57
61506;BME280;47366;51.916;4.574;2022-10-24T02:36:17;100245.38;;;15.86;75.43
61506;BME280;47366;51.916;4.574;2022-10-24T02:38:45;100253.69;;;15.84;75.45
61506;BME280;47366;51.916;4.574;2022-10-24T02:41:16;100245.66;;;15.83;75.91
61506;BME280;47366;51.916;4.574;2022-10-24T02:43:45;100247.50;;;15.82;74.71
61506;BME280;47366;51.916;4.574;2022-10-24T02:46:12;100234.56;;;15.84;75.06
61506;BME280;47366;51.916;4.574;2022-10-24T02:48:42;100241.19;;;15.82;75.45
61506;BME280;47366;51.916;4.574;2022-10-24T02:51:12;100242.47;;;15.78;75.51
61506;BME280;47366;51.916;4.574;2022-10-24T02:53:38;100250.66;;;15.78;75.28
61506;BME280;47366;51.916;4.574;2022-10-24T02:56:04;100248.94;;;15.77;75.21
61506;BME280;47366;51.916;4.574;2022-10-24T02:58:29;100252.84;;;15.74;74.95
61506;BME280;47366;51.916;4.574;2022-10-24T03:00:54;100243.78;;;15.74;75.33
61506;BME280;47366;51.916;4.574;2022-10-24T03:03:19;100257.44;;;15.74;75.38
61506;BME280;47366;51.916;4.574;2022-10-24T03:05:46;100233.00;;;15.72;75.17
61506;BME280;47366;51.916;4.574;2022-10-24T03:08:12;100237.59;;;15.71;75.47
61506;BME280;47366;51.916;4.574;2022-10-24T03:10:37;100228.66;;;15.69;75.00
61506;BME280;47366;51.916;4.574;2022-10-24T03:13:03;100226.06;;;15.68;74.42
61506;BME280;47366;51.916;4.574;2022-10-24T03:15:29;100217.84;;;15.68;75.00
61506;BME280;47366;51.916;4.574;2022-10-24T03:17:54;100244.44;;;15.66;73.54
61506;BME280;47366;51.916;4.574;2022-10-24T03:20:19;100227.38;;;15.64;74.05
61506;BME280;47366;51.916;4.574;2022-10-24T03:22:44;100230.09;;;15.64;72.67
61506;BME280;47366;51.916;4.574;2022-10-24T03:25:10;100238.97;;;15.66;74.23
61506;BME280;47366;51.916;4.574;2022-10-24T03:27:36;100229.22;;;15.63;73.85
61506;BME280;47366;51.916;4.574;2022-10-24T03:30:02;100230.53;;;15.59;73.49
61506;BME280;47366;51.916;4.574;2022-10-24T03:32:28;100237.69;;;15.60;73.53
61506;BME280;47366;51.916;4.574;2022-10-24T03:34:53;100244.72;;;15.63;73.69
61506;BME280;47366;51.916;4.574;2022-10-24T03:37:18;100243.88;;;15.62;72.52
61506;BME280;47366;51.916;4.574;2022-10-24T03:39:44;100243.03;;;15.62;72.77
61506;BME280;47366;51.916;4.574;2022-10-24T03:42:09;100241.88;;;15.64;72.83
61506;BME280;47366;51.916;4.574;2022-10-24T03:44:35;100222.88;;;15.63;72.85
61506;BME280;47366;51.916;4.574;2022-10-24T03:47:00;100238.13;;;15.65;72.92
61506;BME280;47366;51.916;4.574;2022-10-24T03:49:26;100229.22;;;15.63;72.83
61506;BME280;47366;51.916;4.574;2022-10-24T03:51:51;100234.66;;;15.63;72.32
61506;BME280;47366;51.916;4.574;2022-10-24T03:54:16;100229.22;;;15.63;72.31
61506;BME280;47366;51.916;4.574;2022-10-24T03:56:43;100218.16;;;15.65;71.34
61506;BME280;47366;51.916;4.574;2022-10-24T03:59:08;100234.41;;;15.66;71.53
61506;BME280;47366;51.916;4.574;2022-10-24T04:01:34;100229.81;;;15.67;71.48
61506;BME280;47366;51.916;4.574;2022-10-24T04:03:59;100227.19;;;15.65;72.65
61506;BME280;47366;51.916;4.574;2022-10-24T04:06:24;100230.94;;;15.64;72.20
61506;BME280;47366;51.916;4.574;2022-10-24T04:08:49;100225.31;;;15.66;72.39
61506;BME280;47366;51.916;4.574;2022-10-24T04:11:15;100215.44;;;15.65;72.45
61506;BME280;47366;51.916;4.574;2022-10-24T04:13:40;100218.03;;;15.66;72.56
61506;BME280;47366;51.916;4.574;2022-10-24T04:16:06;100222.34;;;15.69;72.13
61506;BME280;47366;51.916;4.574;2022-10-24T04:18:32;100206.72;;;15.71;72.66
61506;BME280;47366;51.916;4.574;2022-10-24T04:20:57;100223.19;;;15.69;72.66
61506;BME280;47366;51.916;4.574;2022-10-24T04:23:22;100220.19;;;15.73;72.78
61506;BME280;47366;51.916;4.574;2022-10-24T04:25:48;100223.66;;;15.75;72.39
61506;BME280;47366;51.916;4.574;2022-10-24T04:28:14;100210.00;;;15.75;72.13
61506;BME280;47366;51.916;4.574;2022-10-24T04:30:39;100211.56;;;15.77;71.65
61506;BME280;47366;51.916;4.574;2022-10-24T04:33:04;100215.03;;;15.79;71.87
61506;BME280;47366;51.916;4.574;2022-10-24T04:35:30;100213.88;;;15.82;71.94
61506;BME280;47366;51.916;4.574;2022-10-24T04:37:55;100212.88;;;15.83;71.38
61506;BME280;47366;51.916;4.574;2022-10-24T04:40:20;100196.50;;;15.83;72.01
61506;BME280;47366;51.916;4.574;2022-10-24T04:42:46;100218.06;;;15.86;71.62
61506;BME280;47366;51.916;4.574;2022-10-24T04:45:11;100220.06;;;15.84;70.99
61506;BME280;47366;51.916;4.574;2022-10-24T04:47:36;100225.22;;;15.87;70.96
61506;BME280;47366;51.916;4.574;2022-10-24T04:50:02;100217.34;;;15.84;72.06
61506;BME280;47366;51.916;4.574;2022-10-24T04:52:28;100217.47;;;15.82;72.24
61506;BME280;47366;51.916;4.574;2022-10-24T04:54:54;100218.34;;;15.83;72.02
61506;BME280;47366;51.916;4.574;2022-10-24T04:57:19;100211.88;;;15.84;71.70
61506;BME280;47366;51.916;4.574;2022-10-24T04:59:45;100222.06;;;15.82;71.26
61506;BME280;47366;51.916;4.574;2022-10-24T05:02:10;100224.66;;;15.83;71.21
61506;BME280;47366;51.916;4.574;2022-10-24T05:04:35;100215.63;;;15.83;72.10
61506;BME280;47366;51.916;4.574;2022-10-24T05:07:01;100218.19;;;15.84;71.69
61506;BME280;47366;51.916;4.574;2022-10-24T05:09:26;100226.13;;;15.87;71.44
61506;BME280;47366;51.916;4.574;2022-10-24T05:11:55;100225.41;;;15.85;71.59
61506;BME280;47366;51.916;4.574;2022-10-24T05:14:21;100226.97;;;15.88;71.83
61506;BME280;47366;51.916;4.574;2022-10-24T05:16:46;100223.66;;;15.84;71.58
61506;BME280;47366;51.916;4.574;2022-10-24T05:19:14;100224.66;;;15.83;71.71
61506;BME280;47366;51.916;4.574;2022-10-24T05:21:39;100211.31;;;15.80;71.78
61506;BME280;47366;51.916;4.574;2022-10-24T05:24:05;100216.91;;;15.79;72.30
61506;BME280;47366;51.916;4.574;2022-10-24T05:26:30;100225.22;;;15.77;72.26
61506;BME280;47366;51.916;4.574;2022-10-24T05:28:55;100223.66;;;15.75;72.55
61506;BME280;47366;51.916;4.574;2022-10-24T05:31:21;100223.09;;;15.71;72.53
61506;BME280;47366;51.916;4.574;2022-10-24T05:33:46;100231.28;;;15.71;72.48
61506;BME280;47366;51.916;4.574;2022-10-24T05:36:11;100233.00;;;15.72;72.87
61506;BME280;47366;51.916;4.574;2022-10-24T05:38:37;100226.69;;;15.71;72.68
61506;BME280;47366;51.916;4.574;2022-10-24T05:41:02;100233.25;;;15.69;72.91
61506;BME280;47366;51.916;4.574;2022-10-24T05:43:27;100231.28;;;15.71;72.35
61506;BME280;47366;51.916;4.574;2022-10-24T05:45:53;100227.66;;;15.70;72.80
61506;BME280;47366;51.916;4.574;2022-10-24T05:48:18;100234.41;;;15.66;72.94
61506;BME280;47366;51.916;4.574;2022-10-24T05:50:43;100226.06;;;15.68;72.92
61506;BME280;47366;51.916;4.574;2022-10-24T05:53:09;100226.06;;;15.68;72.59
61506;BME280;47366;51.916;4.574;2022-10-24T05:55:35;100222.22;;;15.70;72.47
61506;BME280;47366;51.916;4.574;2022-10-24T05:58:01;100220.19;;;15.73;72.86
61506;BME280;47366;51.916;4.574;2022-10-24T06:00:26;100236.44;;;15.74;72.83
61506;BME280;47366;51.916;4.574;2022-10-24T06:02:51;100235.59;;;15.74;72.94
61506;BME280;47366;51.916;4.574;2022-10-24T06:05:17;100239.56;;;15.69;72.64
61506;BME280;47366;51.916;4.574;2022-10-24T06:07:43;100230.41;;;15.70;72.77
61506;BME280;47366;51.916;4.574;2022-10-24T06:10:10;100241.59;;;15.67;72.67
61506;BME280;47366;51.916;4.574;2022-10-24T06:12:37;100245.16;;;15.68;72.99
61506;BME280;47366;51.916;4.574;2022-10-24T06:15:05;100255.53;;;15.64;72.62
61506;BME280;47366;51.916;4.574;2022-10-24T06:17:31;100261.72;;;15.66;72.93
61506;BME280;47366;51.916;4.574;2022-10-24T06:19:56;100258.38;;;15.63;72.59
61506;BME280;47366;51.916;4.574;2022-10-24T06:22:22;100266.44;;;15.64;73.00
61506;BME280;47366;51.916;4.574;2022-10-24T06:24:49;100269.19;;;15.64;73.12
61506;BME280;47366;51.916;4.574;2022-10-24T06:27:15;100256.69;;;15.62;73.26
61506;BME280;47366;51.916;4.574;2022-10-24T06:29:41;100261.97;;;15.63;72.82
61506;BME280;47366;51.916;4.574;2022-10-24T06:32:06;100272.75;;;15.65;73.25
61506;BME280;47366;51.916;4.574;2022-10-24T06:34:32;100274.63;;;15.64;73.05
61506;BME280;47366;51.916;4.574;2022-10-24T06:36:58;100272.88;;;15.63;73.16
61506;BME280;47366;51.916;4.574;2022-10-24T06:39:23;100276.34;;;15.65;72.99
61506;BME280;47366;51.916;4.574;2022-10-24T06:41:48;100284.84;;;15.62;73.12
61506;BME280;47366;51.916;4.574;2022-10-24T06:44:14;100297.22;;;15.66;72.79
61506;BME280;47366;51.916;4.574;2022-10-24T06:46:39;100295.19;;;15.68;73.11
61506;BME280;47366;51.916;4.574;2022-10-24T06:49:05;100303.53;;;15.67;73.33
61506;BME280;47366;51.916;4.574;2022-10-24T06:51:31;100300.66;;;15.68;73.10
61506;BME280;47366;51.916;4.574;2022-10-24T06:53:57;100311.72;;;15.67;73.13
61506;BME280;47366;51.916;4.574;2022-10-24T06:56:22;100313.44;;;15.68;73.59
61506;BME280;47366;51.916;4.574;2022-10-24T06:58:47;100322.63;;;15.67;73.64
61506;BME280;47366;51.916;4.574;2022-10-24T07:01:18;100319.19;;;15.65;73.33
61506;BME280;47366;51.916;4.574;2022-10-24T07:03:44;100327.25;;;15.66;73.35
61506;BME280;47366;51.916;4.574;2022-10-24T07:06:22;100335.44;;;15.66;73.30
61506;BME280;47366;51.916;4.574;2022-10-24T07:08:49;100341.75;;;15.67;73.77
61506;BME280;47366;51.916;4.574;2022-10-24T07:11:14;100333.69;;;15.65;73.87
61506;BME280;47366;51.916;4.574;2022-10-24T07:13:40;100348.34;;;15.64;73.66
61506;BME280;47366;51.916;4.574;2022-10-24T07:16:06;100357.41;;;15.65;74.00
61506;BME280;47366;51.916;4.574;2022-10-24T07:18:31;100360.00;;;15.66;74.05
61506;BME280;47366;51.916;4.574;2022-10-24T07:21:05;100348.47;;;15.63;73.75
61506;BME280;47366;51.916;4.574;2022-10-24T07:23:31;100366.63;;;15.64;74.03
61506;BME280;47366;51.916;4.574;2022-10-24T07:26:05;100366.75;;;15.62;74.22
61506;BME280;47366;51.916;4.574;2022-10-24T07:28:32;100382.72;;;15.67;74.37
61506;BME280;47366;51.916;4.574;2022-10-24T07:30:57;100383.56;;;15.67;74.09
61506;BME280;47366;51.916;4.574;2022-10-24T07:33:23;100381.84;;;15.66;74.29
61506;BME280;47366;51.916;4.574;2022-10-24T07:35:49;100389.31;;;15.64;74.23
61506;BME280;47366;51.916;4.574;2022-10-24T07:38:14;100389.16;;;15.66;74.93
61506;BME280;47366;51.916;4.574;2022-10-24T07:40:39;100392.31;;;15.61;74.43
61506;BME280;47366;51.916;4.574;2022-10-24T07:43:05;100414.00;;;15.63;74.98
61506;BME280;47366;51.916;4.574;2022-10-24T07:45:30;100403.38;;;15.60;74.77
61506;BME280;47366;51.916;4.574;2022-10-24T07:47:57;100414.28;;;15.60;74.82
61506;BME280;47366;51.916;4.574;2022-10-24T07:50:23;100419.75;;;15.60;75.21
61506;BME280;47366;51.916;4.574;2022-10-24T07:52:48;100413.44;;;15.59;75.54
61506;BME280;47366;51.916;4.574;2022-10-24T07:55:14;100421.63;;;15.59;75.91
61506;BME280;47366;51.916;4.574;2022-10-24T07:57:39;100426.19;;;15.59;76.32
61506;BME280;47366;51.916;4.574;2022-10-24T08:00:05;100432.69;;;15.58;76.80
61506;BME280;47366;51.916;4.574;2022-10-24T08:02:31;100440.00;;;15.57;76.88
61506;BME280;47366;51.916;4.574;2022-10-24T08:04:57;100444.72;;;15.55;77.92
61506;BME280;47366;51.916;4.574;2022-10-24T08:07:22;100447.00;;;15.50;78.69
61506;BME280;47366;51.916;4.574;2022-10-24T08:09:47;100443.22;;;15.41;79.72
61506;BME280;47366;51.916;4.574;2022-10-24T08:12:15;100469.34;;;15.34;79.42
61506;BME280;47366;51.916;4.574;2022-10-24T08:14:41;100477.91;;;15.29;80.64
61506;BME280;47366;51.916;4.574;2022-10-24T08:17:06;100473.88;;;15.24;80.70
61506;BME280;47366;51.916;4.574;2022-10-24T08:19:32;100473.94;;;15.13;81.80
61506;BME280;47366;51.916;4.574;2022-10-24T08:21:58;100487.00;;;15.09;81.90
61506;BME280;47366;51.916;4.574;2022-10-24T08:24:24;100488.97;;;15.07;83.42
61506;BME280;47366;51.916;4.574;2022-10-24T08:26:50;100475.75;;;15.02;83.51
61506;BME280;47366;51.916;4.574;2022-10-24T08:29:16;100489.09;;;15.05;83.50
61506;BME280;47366;51.916;4.574;2022-10-24T08:31:54;100493.44;;;15.08;83.80
61506;BME280;47366;51.916;4.574;2022-10-24T08:34:20;100496.44;;;15.05;84.88
61506;BME280;47366;51.916;4.574;2022-10-24T08:36:47;100498.28;;;15.04;84.66
61506;BME280;47366;51.916;4.574;2022-10-24T08:39:13;100498.28;;;15.04;84.41
61506;BME280;47366;51.916;4.574;2022-10-24T08:41:44;100490.13;;;15.04;84.47
61506;BME280;47366;51.916;4.574;2022-10-24T08:49:53;100508.75;;;14.99;84.83
61506;BME280;47366;51.916;4.574;2022-10-24T08:52:39;100515.28;;;14.97;84.72
61506;BME280;47366;51.916;4.574;2022-10-24T08:55:14;100518.28;;;14.94;85.37
61506;BME280;47366;51.916;4.574;2022-10-24T08:57:43;100528.47;;;14.92;85.33
61506;BME280;47366;51.916;4.574;2022-10-24T09:00:18;100522.16;;;14.91;86.17
61506;BME280;47366;51.916;4.574;2022-10-24T09:02:47;100530.94;;;14.95;85.43
61506;BME280;47366;51.916;4.574;2022-10-24T09:05:17;100543.84;;;14.93;85.05
61506;BME280;47366;51.916;4.574;2022-10-24T09:07:45;100547.56;;;14.92;85.77
61506;BME280;47366;51.916;4.574;2022-10-24T09:10:32;100537.38;;;14.94;85.48
61506;BME280;47366;51.916;4.574;2022-10-24T09:12:59;100541.34;;;14.90;85.51
61506;BME280;47366;51.916;4.574;2022-10-24T09:15:28;100552.28;;;14.90;85.52
61506;BME280;47366;51.916;4.574;2022-10-24T09:17:55;100555.16;;;14.88;85.85
61506;BME280;47366;51.916;4.574;2022-10-24T09:20:27;100550.06;;;14.83;86.31
61506;BME280;47366;51.916;4.574;2022-10-24T09:22:53;100555.25;;;14.86;86.18
61506;BME280;47366;51.916;4.574;2022-10-24T09:25:22;100560.06;;;14.94;86.31
61506;BME280;47366;51.916;4.574;2022-10-24T09:27:50;100562.25;;;15.12;86.12
61506;BME280;47366;51.916;4.574;2022-10-24T09:30:20;100561.94;;;15.26;85.60
61506;BME280;47366;51.916;4.574;2022-10-24T09:32:46;100575.03;;;15.32;84.90
61506;BME280;47366;51.916;4.574;2022-10-24T09:35:24;100578.09;;;15.39;84.90
61506;BME280;47366;51.916;4.574;2022-10-24T09:37:54;100586.75;;;15.44;84.79
61506;BME280;47366;51.916;4.574;2022-10-24T09:42:51;100589.97;;;15.70;83.46
61506;BME280;47366;51.916;4.574;2022-10-24T09:45:27;100585.44;;;15.59;83.36
61506;BME280;47366;51.916;4.574;2022-10-24T09:48:06;100595.91;;;15.54;83.85
61506;BME280;47366;51.916;4.574;2022-10-24T09:50:40;100598.13;;;15.49;83.27
61506;BME280;47366;51.916;4.574;2022-10-24T09:53:36;100588.97;;;15.50;83.10
61506;BME280;47366;51.916;4.574;2022-10-24T09:56:13;100603.63;;;15.91;82.43
61506;BME280;47366;51.916;4.574;2022-10-24T09:58:39;100600.78;;;15.92;81.46
61506;BME280;47366;51.916;4.574;2022-10-24T10:01:06;100601.19;;;15.88;81.61
61506;BME280;47366;51.916;4.574;2022-10-24T10:03:42;100601.84;;;15.80;81.77
61506;BME280;47366;51.916;4.574;2022-10-24T10:06:23;100616.94;;;15.84;82.02
61506;BME280;47366;51.916;4.574;2022-10-24T10:08:58;100613.63;;;15.81;81.05
61506;BME280;47366;51.916;4.574;2022-10-24T10:11:26;100612.50;;;15.83;81.34
61506;BME280;47366;51.916;4.574;2022-10-24T10:13:55;100622.28;;;15.86;80.31
61506;BME280;47366;51.916;4.574;2022-10-24T10:16:28;100630.88;;;15.81;81.20
61506;BME280;47366;51.916;4.574;2022-10-24T10:19:02;100640.69;;;15.84;81.43
61506;BME280;47366;51.916;4.574;2022-10-24T10:26:59;100651.16;;;15.67;81.86
61506;BME280;47366;51.916;4.574;2022-10-24T10:29:24;100649.56;;;15.65;81.41
61506;BME280;47366;51.916;4.574;2022-10-24T10:31:57;100659.16;;;15.59;81.70
61506;BME280;47366;51.916;4.574;2022-10-24T10:37:11;100674.34;;;15.52;82.10
61506;BME280;47366;51.916;4.574;2022-10-24T10:39:50;100678.81;;;15.42;82.58
61506;BME280;47366;51.916;4.574;2022-10-24T10:56:47;100698.56;;;15.02;85.24
61506;BME280;47366;51.916;4.574;2022-10-24T11:05:46;100701.78;;;14.96;86.33
61506;BME280;47366;51.916;4.574;2022-10-24T11:07:49;100706.22;;;14.97;86.69
61506;BME280;47366;51.916;4.574;2022-10-24T11:10:22;100705.63;;;14.93;87.26
61506;BME280;47366;51.916;4.574;2022-10-24T11:12:49;100711.47;;;14.89;86.93
61506;BME280;47366;51.916;4.574;2022-10-24T11:15:24;100710.44;;;14.90;87.27
61506;BME280;47366;51.916;4.574;2022-10-24T11:17:55;100709.22;;;14.94;87.03
61506;BME280;47366;51.916;4.574;2022-10-24T11:20:34;100697.06;;;14.98;86.98
61506;BME280;47366;51.916;4.574;2022-10-24T11:23:12;100716.75;;;15.01;87.45
61506;BME280;47366;51.916;4.574;2022-10-24T11:25:58;100714.41;;;14.97;86.88
61506;BME280;47366;51.916;4.574;2022-10-24T11:31:24;100721.25;;;15.02;87.77
61506;BME280;47366;51.916;4.574;2022-10-24T11:47:30;100724.06;;;15.23;86.24
61506;BME280;47366;51.916;4.574;2022-10-24T11:50:26;100717.47;;;15.26;86.87
61506;BME280;47366;51.916;4.574;2022-10-24T11:53:05;100720.31;;;15.24;86.80
61506;BME280;47366;51.916;4.574;2022-10-24T11:55:41;100726.78;;;15.23;86.68
61506;BME280;47366;51.916;4.574;2022-10-24T11:58:13;100728.38;;;15.26;86.68
61506;BME280;47366;51.916;4.574;2022-10-24T12:01:04;100742.63;;;15.29;86.55
61506;BME280;47366;51.916;4.574;2022-10-24T12:11:38;100734.03;;;15.45;85.83
61506;BME280;47366;51.916;4.574;2022-10-24T12:14:18;100744.47;;;15.40;85.60
61506;BME280;47366;51.916;4.574;2022-10-24T12:19:31;100746.88;;;15.22;86.91
61506;BME280;47366;51.916;4.574;2022-10-24T12:22:00;100734.34;;;15.08;87.56
61506;BME280;47366;51.916;4.574;2022-10-24T12:24:30;100746.66;;;15.03;87.54
61506;BME280;47366;51.916;4.574;2022-10-24T12:27:02;100740.72;;;14.98;88.18
61506;BME280;47366;51.916;4.574;2022-10-24T12:29:30;100732.91;;;14.93;88.64
61506;BME280;47366;51.916;4.574;2022-10-24T12:31:59;100751.25;;;14.91;88.61
61506;BME280;47366;51.916;4.574;2022-10-24T12:34:43;100739.97;;;14.84;89.27
61506;BME280;47366;51.916;4.574;2022-10-24T12:39:51;100747.03;;;14.87;88.85
61506;BME280;47366;51.916;4.574;2022-10-24T12:47:32;100744.06;;;14.90;89.18
61506;BME280;47366;51.916;4.574;2022-10-24T12:58:36;100759.88;;;15.30;88.13
61506;BME280;47366;51.916;4.574;2022-10-24T13:01:26;100747.59;;;15.24;87.96
61506;BME280;47366;51.916;4.574;2022-10-24T13:09:11;100748.38;;;15.15;87.59
61506;BME280;47366;51.916;4.574;2022-10-24T13:14:37;100757.94;;;15.10;86.68
61506;BME280;47366;51.916;4.574;2022-10-24T13:17:22;100756.31;;;15.07;86.81
61506;BME280;47366;51.916;4.574;2022-10-24T13:20:14;100755.81;;;15.13;87.16
61506;BME280;47366;51.916;4.574;2022-10-24T13:22:41;100743.91;;;15.14;86.96
61506;BME280;47366;51.916;4.574;2022-10-24T13:25:30;100742.78;;;15.17;87.10
61506;BME280;47366;51.916;4.574;2022-10-24T13:30:50;100744.22;;;15.32;86.60
61506;BME280;47366;51.916;4.574;2022-10-24T13:33:39;100743.47;;;15.41;86.59
61506;BME280;47366;51.916;4.574;2022-10-24T13:38:36;100739.38;;;15.47;86.03
61506;BME280;47366;51.916;4.574;2022-10-24T13:41:09;100741.69;;;15.51;86.11
61506;BME280;47366;51.916;4.574;2022-10-24T13:43:42;100750.41;;;15.57;85.94
61506;BME280;47366;51.916;4.574;2022-10-24T13:46:19;100749.66;;;15.55;84.93
61506;BME280;47366;51.916;4.574;2022-10-24T13:48:49;100753.97;;;15.57;85.14
61506;BME280;47366;51.916;4.574;2022-10-24T13:51:31;100754.47;;;15.62;84.65
61506;BME280;47366;51.916;4.574;2022-10-24T13:54:05;100751.97;;;15.70;84.97
61506;BME280;47366;51.916;4.574;2022-10-24T13:56:36;100756.81;;;15.78;84.92
61506;BME280;47366;51.916;4.574;2022-10-24T13:59:03;100749.34;;;15.80;84.70
61506;BME280;47366;51.916;4.574;2022-10-24T14:01:29;100765.06;;;15.88;84.87
61506;BME280;47366;51.916;4.574;2022-10-24T14:03:56;100767.66;;;15.89;84.50
61506;BME280;47366;51.916;4.574;2022-10-24T14:06:31;100760.34;;;15.90;84.10
61506;BME280;47366;51.916;4.574;2022-10-24T14:09:03;100755.41;;;15.84;83.96
61506;BME280;47366;51.916;4.574;2022-10-24T14:11:33;100765.84;;;15.79;83.85
61506;BME280;47366;51.916;4.574;2022-10-24T14:14:03;100765.38;;;15.74;84.17
61506;BME280;47366;51.916;4.574;2022-10-24T14:16:31;100778.53;;;15.68;83.61
61506;BME280;47366;51.916;4.574;2022-10-24T14:19:10;100786.84;;;15.67;84.03
61506;BME280;47366;51.916;4.574;2022-10-24T14:21:41;100775.69;;;15.59;83.82
61506;BME280;47366;51.916;4.574;2022-10-24T14:24:13;100781.13;;;15.59;84.05
61506;BME280;47366;51.916;4.574;2022-10-24T14:26:39;100777.69;;;15.57;84.37
61506;BME280;47366;51.916;4.574;2022-10-24T14:29:20;100783.00;;;15.58;84.00
61506;BME280;47366;51.916;4.574;2022-10-24T14:31:53;100790.69;;;15.64;84.73
61506;BME280;47366;51.916;4.574;2022-10-24T14:34:20;100793.03;;;15.69;84.48
61506;BME280;47366;51.916;4.574;2022-10-24T14:36:46;100798.63;;;15.67;84.13
61506;BME280;47366;51.916;4.574;2022-10-24T14:39:17;100800.25;;;15.70;84.03
61506;BME280;47366;51.916;4.574;2022-10-24T14:41:48;100804.59;;;15.73;84.31
61506;BME280;47366;51.916;4.574;2022-10-24T14:44:15;100800.16;;;15.71;83.89
61506;BME280;47366;51.916;4.574;2022-10-24T14:46:43;100788.56;;;15.68;84.05